sensor_id;sensor_type;location;lat;lon;timestamp;P1;durP1;ratioP1;P2;durP2;ratioP2
46122;SDS011;31856;-35.404;149.120;2022-10-31T03:06:26;2.50;;;1.57;;
46122;SDS011;31856;-35.404;149.120;2022-10-31T03:09:21;1.88;;;0.93;;
46122;SDS011;31856;-35.404;149.120;2022-10-31T03:12:01;7.00;;;1.92;;
46122;SDS011;31856;-35.404;149.120;2022-10-31T03:21:16;3.63;;;0.90;;
46122;SDS011;31856;-35.404;149.120;2022-10-31T03:23:51;1.73;;;1.15;;
46122;SDS011;31856;-35.404;149.120;2022-10-31T03:26:21;2.22;;;1.00;;
46122;SDS011;31856;-35.404;149.120;2022-10-31T03:31:25;2.10;;;0.95;;
46122;SDS011;31856;-35.404;149.120;2022-10-31T03:33:56;1.92;;;1.00;;
46122;SDS011;31856;-35.404;149.120;2022-10-31T03:36:29;2.97;;;0.90;;
46122;SDS011;31856;-35.404;149.120;2022-10-31T03:39:01;1.20;;;0.88;;
46122;SDS011;31856;-35.404;149.120;2022-10-31T03:41:37;0.95;;;0.80;;
46122;SDS011;31856;-35.404;149.120;2022-10-31T03:44:12;2.72;;;0.90;;
46122;SDS011;31856;-35.404;149.120;2022-10-31T03:46:44;2.38;;;0.70;;
46122;SDS011;31856;-35.404;149.120;2022-10-31T03:49:20;2.65;;;0.90;;
46122;SDS011;31856;-35.404;149.120;2022-10-31T03:52:15;3.03;;;1.05;;
46122;SDS011;31856;-35.404;149.120;2022-10-31T03:55:40;5.13;;;0.98;;
46122;SDS011;31856;-35.404;149.120;2022-10-31T03:58:29;1.15;;;0.80;;
46122;SDS011;31856;-35.404;149.120;2022-10-31T04:01:01;3.83;;;0.88;;
46122;SDS011;31856;-35.404;149.120;2022-10-31T04:03:33;1.80;;;0.80;;
46122;SDS011;31856;-35.404;149.120;2022-10-31T04:26:26;1.52;;;0.60;;
46122;SDS011;31856;-35.404;149.120;2022-10-31T04:29:19;2.65;;;0.80;;
46122;SDS011;31856;-35.404;149.120;2022-10-31T04:31:52;1.35;;;0.73;;
46122;SDS011;31856;-35.404;149.120;2022-10-31T04:34:28;1.77;;;0.80;;
46122;SDS011;31856;-35.404;149.120;2022-10-31T04:36:58;3.45;;;0.80;;
46122;SDS011;31856;-35.404;149.120;2022-10-31T04:39:31;1.98;;;0.50;;
46122;SDS011;31856;-35.404;149.120;2022-10-31T04:42:01;1.35;;;0.60;;
46122;SDS011;31856;-35.404;149.120;2022-10-31T04:44:31;1.08;;;0.60;;
46122;SDS011;31856;-35.404;149.120;2022-10-31T04:47:01;0.75;;;0.50;;
46122;SDS011;31856;-35.404;149.120;2022-10-31T04:49:31;1.65;;;0.60;;
46122;SDS011;31856;-35.404;149.120;2022-10-31T04:52:04;1.83;;;0.57;;
46122;SDS011;31856;-35.404;149.120;2022-10-31T04:54:37;1.40;;;0.77;;
46122;SDS011;31856;-35.404;149.120;2022-10-31T04:57:13;2.25;;;0.80;;
46122;SDS011;31856;-35.404;149.120;2022-10-31T04:59:43;2.63;;;1.52;;
46122;SDS011;31856;-35.404;149.120;2022-10-31T05:02:13;2.08;;;0.60;;
46122;SDS011;31856;-35.404;149.120;2022-10-31T05:04:43;1.08;;;0.57;;
46122;SDS011;31856;-35.404;149.120;2022-10-31T05:07:13;1.23;;;0.50;;
46122;SDS011;31856;-35.404;149.120;2022-10-31T05:09:43;1.35;;;0.73;;
46122;SDS011;31856;-35.404;149.120;2022-10-31T05:12:13;0.75;;;0.40;;
46122;SDS011;31856;-35.404;149.120;2022-10-31T05:14:43;3.47;;;0.30;;
46122;SDS011;31856;-35.404;149.120;2022-10-31T05:17:14;1.63;;;0.40;;
46122;SDS011;31856;-35.404;149.120;2022-10-31T05:19:44;2.08;;;0.43;;
46122;SDS011;31856;-35.404;149.120;2022-10-31T05:22:14;1.15;;;0.55;;
46122;SDS011;31856;-35.404;149.120;2022-10-31T05:24:47;1.52;;;0.60;;
46122;SDS011;31856;-35.404;149.120;2022-10-31T05:37:28;0.80;;;0.30;;
46122;SDS011;31856;-35.404;149.120;2022-10-31T05:39:58;0.65;;;0.30;;
46122;SDS011;31856;-35.404;149.120;2022-10-31T05:42:34;0.55;;;0.20;;
46122;SDS011;31856;-35.404;149.120;2022-10-31T05:45:04;0.52;;;0.30;;
46122;SDS011;31856;-35.404;149.120;2022-10-31T05:47:34;2.28;;;0.22;;
46122;SDS011;31856;-35.404;149.120;2022-10-31T05:50:05;0.30;;;0.22;;
46122;SDS011;31856;-35.404;149.120;2022-10-31T05:52:35;1.92;;;0.47;;
46122;SDS011;31856;-35.404;149.120;2022-10-31T05:55:05;0.95;;;0.30;;
46122;SDS011;31856;-35.404;149.120;2022-10-31T05:57:35;0.40;;;0.30;;
46122;SDS011;31856;-35.404;149.120;2022-10-31T06:00:05;0.30;;;0.30;;
46122;SDS011;31856;-35.404;149.120;2022-10-31T06:02:35;0.30;;;0.30;;
46122;SDS011;31856;-35.404;149.120;2022-10-31T06:05:07;0.47;;;0.30;;
46122;SDS011;31856;-35.404;149.120;2022-10-31T06:07:37;0.40;;;0.30;;
46122;SDS011;31856;-35.404;149.120;2022-10-31T06:10:07;1.92;;;0.40;;
46122;SDS011;31856;-35.404;149.120;2022-10-31T06:12:37;1.55;;;0.30;;
46122;SDS011;31856;-35.404;149.120;2022-10-31T06:15:09;1.08;;;0.30;;
46122;SDS011;31856;-35.404;149.120;2022-10-31T06:17:45;0.63;;;0.30;;
46122;SDS011;31856;-35.404;149.120;2022-10-31T06:20:16;0.90;;;0.30;;
46122;SDS011;31856;-35.404;149.120;2022-10-31T06:22:46;0.60;;;0.38;;
46122;SDS011;31856;-35.404;149.120;2022-10-31T06:25:16;0.20;;;0.20;;
46122;SDS011;31856;-35.404;149.120;2022-10-31T06:27:46;2.05;;;0.30;;
46122;SDS011;31856;-35.404;149.120;2022-10-31T06:30:16;0.30;;;0.30;;
46122;SDS011;31856;-35.404;149.120;2022-10-31T06:32:46;3.08;;;0.40;;
46122;SDS011;31856;-35.404;149.120;2022-10-31T06:35:17;0.52;;;0.30;;
46122;SDS011;31856;-35.404;149.120;2022-10-31T06:37:52;3.20;;;0.77;;
46122;SDS011;31856;-35.404;149.120;2022-10-31T06:40:23;0.40;;;0.30;;
46122;SDS011;31856;-35.404;149.120;2022-10-31T06:42:59;1.08;;;0.40;;
46122;SDS011;31856;-35.404;149.120;2022-10-31T06:45:29;0.60;;;0.38;;
46122;SDS011;31856;-35.404;149.120;2022-10-31T06:47:59;1.52;;;0.57;;
46122;SDS011;31856;-35.404;149.120;2022-10-31T06:50:43;0.73;;;0.47;;
46122;SDS011;31856;-35.404;149.120;2022-10-31T06:53:13;0.73;;;0.40;;
46122;SDS011;31856;-35.404;149.120;2022-10-31T06:55:44;1.15;;;1.00;;
46122;SDS011;31856;-35.404;149.120;2022-10-31T06:58:14;2.47;;;1.17;;
46122;SDS011;31856;-35.404;149.120;2022-10-31T07:00:43;2.10;;;1.08;;
46122;SDS011;31856;-35.404;149.120;2022-10-31T07:03:17;1.17;;;0.75;;
46122;SDS011;31856;-35.404;149.120;2022-10-31T07:05:48;1.42;;;0.82;;
46122;SDS011;31856;-35.404;149.120;2022-10-31T07:08:19;0.95;;;0.77;;
46122;SDS011;31856;-35.404;149.120;2022-10-31T07:10:53;1.77;;;0.90;;
46122;SDS011;31856;-35.404;149.120;2022-10-31T07:13:23;1.30;;;0.70;;
46122;SDS011;31856;-35.404;149.120;2022-10-31T07:15:54;0.73;;;0.40;;
46122;SDS011;31856;-35.404;149.120;2022-10-31T07:18:28;0.57;;;0.40;;
46122;SDS011;31856;-35.404;149.120;2022-10-31T07:20:58;0.60;;;0.50;;
46122;SDS011;31856;-35.404;149.120;2022-10-31T07:23:29;1.10;;;0.50;;
46122;SDS011;31856;-35.404;149.120;2022-10-31T07:26:00;1.15;;;0.40;;
46122;SDS011;31856;-35.404;149.120;2022-10-31T07:28:30;1.00;;;0.40;;
46122;SDS011;31856;-35.404;149.120;2022-10-31T07:31:00;0.88;;;0.60;;
46122;SDS011;31856;-35.404;149.120;2022-10-31T07:33:31;1.08;;;0.70;;
46122;SDS011;31856;-35.404;149.120;2022-10-31T07:36:01;1.10;;;0.80;;
46122;SDS011;31856;-35.404;149.120;2022-10-31T07:38:31;1.20;;;1.00;;
46122;SDS011;31856;-35.404;149.120;2022-10-31T07:41:00;4.43;;;1.00;;
46122;SDS011;31856;-35.404;149.120;2022-10-31T07:43:32;1.10;;;0.90;;
46122;SDS011;31856;-35.404;149.120;2022-10-31T07:46:02;1.58;;;0.80;;
46122;SDS011;31856;-35.404;149.120;2022-10-31T07:48:32;0.95;;;0.80;;
46122;SDS011;31856;-35.404;149.120;2022-10-31T07:51:02;2.10;;;0.63;;
46122;SDS011;31856;-35.404;149.120;2022-10-31T07:53:34;1.00;;;0.73;;
46122;SDS011;31856;-35.404;149.120;2022-10-31T07:56:04;0.50;;;0.40;;
46122;SDS011;31856;-35.404;149.120;2022-10-31T07:58:34;0.50;;;0.40;;
46122;SDS011;31856;-35.404;149.120;2022-10-31T08:01:04;1.10;;;0.40;;
46122;SDS011;31856;-35.404;149.120;2022-10-31T08:03:34;0.65;;;0.30;;
46122;SDS011;31856;-35.404;149.120;2022-10-31T08:06:04;0.60;;;0.30;;
46122;SDS011;31856;-35.404;149.120;2022-10-31T08:08:34;0.38;;;0.30;;
46122;SDS011;31856;-35.404;149.120;2022-10-31T08:11:05;0.32;;;0.30;;
46122;SDS011;31856;-35.404;149.120;2022-10-31T08:13:35;0.70;;;0.40;;
46122;SDS011;31856;-35.404;149.120;2022-10-31T08:16:05;0.40;;;0.40;;
46122;SDS011;31856;-35.404;149.120;2022-10-31T08:18:35;0.85;;;0.50;;
46122;SDS011;31856;-35.404;149.120;2022-10-31T08:21:06;1.00;;;0.40;;
46122;SDS011;31856;-35.404;149.120;2022-10-31T08:23:36;1.55;;;0.45;;
46122;SDS011;31856;-35.404;149.120;2022-10-31T08:26:05;2.15;;;0.50;;
46122;SDS011;31856;-35.404;149.120;2022-10-31T08:28:37;1.70;;;0.60;;
46122;SDS011;31856;-35.404;149.120;2022-10-31T08:31:07;0.45;;;0.40;;
46122;SDS011;31856;-35.404;149.120;2022-10-31T08:33:38;0.77;;;0.50;;
46122;SDS011;31856;-35.404;149.120;2022-10-31T08:36:08;1.67;;;0.50;;
46122;SDS011;31856;-35.404;149.120;2022-10-31T08:38:38;2.80;;;0.50;;
46122;SDS011;31856;-35.404;149.120;2022-10-31T08:41:08;0.30;;;0.30;;
46122;SDS011;31856;-35.404;149.120;2022-10-31T09:15:38;0.93;;;0.43;;
46122;SDS011;31856;-35.404;149.120;2022-10-31T09:18:09;1.05;;;0.50;;
46122;SDS011;31856;-35.404;149.120;2022-10-31T09:20:39;0.45;;;0.40;;
46122;SDS011;31856;-35.404;149.120;2022-10-31T09:25:43;1.35;;;0.40;;
46122;SDS011;31856;-35.404;149.120;2022-10-31T09:28:17;0.47;;;0.40;;
46122;SDS011;31856;-35.404;149.120;2022-10-31T09:30:49;0.30;;;0.30;;
46122;SDS011;31856;-35.404;149.120;2022-10-31T09:33:19;0.55;;;0.40;;
46122;SDS011;31856;-35.404;149.120;2022-10-31T09:35:49;0.40;;;0.32;;
46122;SDS011;31856;-35.404;149.120;2022-10-31T09:38:20;0.85;;;0.50;;
46122;SDS011;31856;-35.404;149.120;2022-10-31T09:41:07;0.30;;;0.30;;
46122;SDS011;31856;-35.404;149.120;2022-10-31T09:51:37;0.30;;;0.30;;
46122;SDS011;31856;-35.404;149.120;2022-10-31T09:54:14;0.47;;;0.30;;
46122;SDS011;31856;-35.404;149.120;2022-10-31T09:56:44;0.50;;;0.40;;
46122;SDS011;31856;-35.404;149.120;2022-10-31T09:59:25;0.43;;;0.38;;
46122;SDS011;31856;-35.404;149.120;2022-10-31T10:02:21;1.00;;;0.40;;
46122;SDS011;31856;-35.404;149.120;2022-10-31T10:04:56;0.32;;;0.30;;
46122;SDS011;31856;-35.404;149.120;2022-10-31T10:10:01;1.05;;;0.73;;
46122;SDS011;31856;-35.404;149.120;2022-10-31T10:12:38;0.47;;;0.40;;
46122;SDS011;31856;-35.404;149.120;2022-10-31T10:23:42;1.45;;;0.50;;
46122;SDS011;31856;-35.404;149.120;2022-10-31T10:25:53;0.40;;;0.40;;
46122;SDS011;31856;-35.404;149.120;2022-10-31T10:28:43;1.70;;;0.57;;
46122;SDS011;31856;-35.404;149.120;2022-10-31T10:31:15;1.50;;;0.47;;
46122;SDS011;31856;-35.404;149.120;2022-10-31T10:36:30;0.90;;;0.50;;
46122;SDS011;31856;-35.404;149.120;2022-10-31T10:39:04;0.47;;;0.40;;
46122;SDS011;31856;-35.404;149.120;2022-10-31T10:41:37;1.90;;;0.45;;
46122;SDS011;31856;-35.404;149.120;2022-10-31T10:44:11;1.48;;;0.30;;
46122;SDS011;31856;-35.404;149.120;2022-10-31T10:46:48;1.13;;;0.50;;
46122;SDS011;31856;-35.404;149.120;2022-10-31T10:49:51;0.45;;;0.30;;
46122;SDS011;31856;-35.404;149.120;2022-10-31T10:52:37;0.65;;;0.47;;
46122;SDS011;31856;-35.404;149.120;2022-10-31T10:58:09;0.47;;;0.40;;
46122;SDS011;31856;-35.404;149.120;2022-10-31T11:00:42;0.47;;;0.45;;
46122;SDS011;31856;-35.404;149.120;2022-10-31T11:03:17;0.93;;;0.50;;
46122;SDS011;31856;-35.404;149.120;2022-10-31T11:13:28;0.40;;;0.40;;
46122;SDS011;31856;-35.404;149.120;2022-10-31T11:16:26;0.47;;;0.43;;
46122;SDS011;31856;-35.404;149.120;2022-10-31T11:21:39;0.70;;;0.50;;
46122;SDS011;31856;-35.404;149.120;2022-10-31T11:26:39;1.83;;;0.82;;
46122;SDS011;31856;-35.404;149.120;2022-10-31T11:29:15;0.68;;;0.50;;
46122;SDS011;31856;-35.404;149.120;2022-10-31T11:31:46;0.80;;;0.60;;
46122;SDS011;31856;-35.404;149.120;2022-10-31T11:39:22;0.93;;;0.40;;
46122;SDS011;31856;-35.404;149.120;2022-10-31T11:41:53;0.95;;;0.50;;
46122;SDS011;31856;-35.404;149.120;2022-10-31T11:44:25;1.08;;;0.40;;
46122;SDS011;31856;-35.404;149.120;2022-10-31T11:46:57;0.50;;;0.40;;
46122;SDS011;31856;-35.404;149.120;2022-10-31T11:52:24;0.75;;;0.40;;
46122;SDS011;31856;-35.404;149.120;2022-10-31T11:55:02;0.75;;;0.47;;
46122;SDS011;31856;-35.404;149.120;2022-10-31T11:57:49;0.20;;;0.20;;
46122;SDS011;31856;-35.404;149.120;2022-10-31T12:00:24;0.28;;;0.28;;
46122;SDS011;31856;-35.404;149.120;2022-10-31T12:05:43;2.10;;;0.30;;
46122;SDS011;31856;-35.404;149.120;2022-10-31T12:08:14;0.20;;;0.20;;
46122;SDS011;31856;-35.404;149.120;2022-10-31T12:16:34;0.45;;;0.35;;
46122;SDS011;31856;-35.404;149.120;2022-10-31T12:19:04;0.32;;;0.32;;
46122;SDS011;31856;-35.404;149.120;2022-10-31T12:43:57;2.55;;;0.60;;
46122;SDS011;31856;-35.404;149.120;2022-10-31T12:57:22;2.83;;;0.98;;
46122;SDS011;31856;-35.404;149.120;2022-10-31T12:59:54;1.63;;;0.90;;
46122;SDS011;31856;-35.404;149.120;2022-10-31T13:02:29;1.73;;;1.00;;
46122;SDS011;31856;-35.404;149.120;2022-10-31T13:10:35;1.23;;;0.90;;
46122;SDS011;31856;-35.404;149.120;2022-10-31T13:13:10;2.00;;;1.10;;
46122;SDS011;31856;-35.404;149.120;2022-10-31T13:15:46;1.85;;;0.90;;
46122;SDS011;31856;-35.404;149.120;2022-10-31T13:18:23;1.58;;;0.80;;
46122;SDS011;31856;-35.404;149.120;2022-10-31T13:20:54;3.20;;;1.00;;
46122;SDS011;31856;-35.404;149.120;2022-10-31T13:23:29;4.20;;;1.15;;
46122;SDS011;31856;-35.404;149.120;2022-10-31T13:26:33;1.25;;;0.95;;
46122;SDS011;31856;-35.404;149.120;2022-10-31T13:29:19;1.85;;;0.90;;
46122;SDS011;31856;-35.404;149.120;2022-10-31T13:31:55;1.10;;;1.00;;
46122;SDS011;31856;-35.404;149.120;2022-10-31T13:34:27;1.35;;;0.90;;
46122;SDS011;31856;-35.404;149.120;2022-10-31T13:37:35;3.45;;;1.20;;
46122;SDS011;31856;-35.404;149.120;2022-10-31T13:45:22;1.80;;;0.90;;
46122;SDS011;31856;-35.404;149.120;2022-10-31T13:50:32;1.25;;;0.80;;
46122;SDS011;31856;-35.404;149.120;2022-10-31T13:53:09;2.35;;;0.90;;
46122;SDS011;31856;-35.404;149.120;2022-10-31T13:55:42;1.75;;;1.00;;
46122;SDS011;31856;-35.404;149.120;2022-10-31T13:58:22;4.78;;;1.15;;
46122;SDS011;31856;-35.404;149.120;2022-10-31T14:00:59;2.80;;;1.33;;
46122;SDS011;31856;-35.404;149.120;2022-10-31T14:03:31;1.85;;;0.90;;
46122;SDS011;31856;-35.404;149.120;2022-10-31T14:06:22;1.90;;;0.90;;
46122;SDS011;31856;-35.404;149.120;2022-10-31T14:08:53;4.20;;;0.80;;
46122;SDS011;31856;-35.404;149.120;2022-10-31T14:11:24;2.13;;;1.48;;
46122;SDS011;31856;-35.404;149.120;2022-10-31T14:14:03;1.05;;;0.50;;
46122;SDS011;31856;-35.404;149.120;2022-10-31T14:16:40;3.17;;;0.70;;
46122;SDS011;31856;-35.404;149.120;2022-10-31T14:19:16;2.65;;;0.70;;
46122;SDS011;31856;-35.404;149.120;2022-10-31T14:21:47;2.70;;;0.50;;
46122;SDS011;31856;-35.404;149.120;2022-10-31T14:29:32;0.90;;;0.50;;
46122;SDS011;31856;-35.404;149.120;2022-10-31T14:34:43;0.57;;;0.40;;
46122;SDS011;31856;-35.404;149.120;2022-10-31T14:40:31;0.40;;;0.40;;
46122;SDS011;31856;-35.404;149.120;2022-10-31T14:51:01;0.30;;;0.30;;
46122;SDS011;31856;-35.404;149.120;2022-10-31T14:53:36;0.73;;;0.30;;
46122;SDS011;31856;-35.404;149.120;2022-10-31T14:56:10;0.77;;;0.40;;
46122;SDS011;31856;-35.404;149.120;2022-10-31T14:58:41;0.82;;;0.40;;
46122;SDS011;31856;-35.404;149.120;2022-10-31T15:01:26;1.75;;;0.47;;
46122;SDS011;31856;-35.404;149.120;2022-10-31T15:04:19;0.30;;;0.30;;
46122;SDS011;31856;-35.404;149.120;2022-10-31T15:06:54;0.50;;;0.30;;
46122;SDS011;31856;-35.404;149.120;2022-10-31T15:09:30;1.25;;;0.30;;
46122;SDS011;31856;-35.404;149.120;2022-10-31T15:12:00;0.60;;;0.40;;
46122;SDS011;31856;-35.404;149.120;2022-10-31T15:14:30;0.45;;;0.32;;
46122;SDS011;31856;-35.404;149.120;2022-10-31T15:17:04;0.90;;;0.40;;
46122;SDS011;31856;-35.404;149.120;2022-10-31T15:19:55;0.65;;;0.40;;
46122;SDS011;31856;-35.404;149.120;2022-10-31T15:22:34;0.30;;;0.30;;
46122;SDS011;31856;-35.404;149.120;2022-10-31T15:25:19;0.40;;;0.32;;
46122;SDS011;31856;-35.404;149.120;2022-10-31T15:27:53;1.20;;;0.40;;
46122;SDS011;31856;-35.404;149.120;2022-10-31T15:30:30;0.57;;;0.50;;
46122;SDS011;31856;-35.404;149.120;2022-10-31T15:33:25;1.35;;;0.40;;
46122;SDS011;31856;-35.404;149.120;2022-10-31T15:36:28;1.85;;;0.40;;
46122;SDS011;31856;-35.404;149.120;2022-10-31T15:39:21;0.85;;;0.35;;
46122;SDS011;31856;-35.404;149.120;2022-10-31T15:42:00;0.80;;;0.32;;
46122;SDS011;31856;-35.404;149.120;2022-10-31T15:44:39;0.60;;;0.38;;
46122;SDS011;31856;-35.404;149.120;2022-10-31T15:47:22;0.98;;;0.30;;
46122;SDS011;31856;-35.404;149.120;2022-10-31T15:49:58;0.30;;;0.30;;
46122;SDS011;31856;-35.404;149.120;2022-10-31T15:55:29;1.02;;;0.30;;
46122;SDS011;31856;-35.404;149.120;2022-10-31T15:58:01;0.45;;;0.30;;
46122;SDS011;31856;-35.404;149.120;2022-10-31T16:00:33;0.28;;;0.28;;
46122;SDS011;31856;-35.404;149.120;2022-10-31T16:03:26;0.43;;;0.30;;
46122;SDS011;31856;-35.404;149.120;2022-10-31T16:05:57;0.30;;;0.30;;
46122;SDS011;31856;-35.404;149.120;2022-10-31T16:13:37;1.55;;;0.30;;
46122;SDS011;31856;-35.404;149.120;2022-10-31T16:16:14;1.05;;;0.30;;
46122;SDS011;31856;-35.404;149.120;2022-10-31T16:19:01;0.30;;;0.30;;
46122;SDS011;31856;-35.404;149.120;2022-10-31T16:21:33;0.45;;;0.20;;
46122;SDS011;31856;-35.404;149.120;2022-10-31T16:26:48;0.30;;;0.30;;
46122;SDS011;31856;-35.404;149.120;2022-10-31T16:31:57;0.30;;;0.30;;
46122;SDS011;31856;-35.404;149.120;2022-10-31T16:34:27;0.35;;;0.30;;
46122;SDS011;31856;-35.404;149.120;2022-10-31T16:36:57;0.30;;;0.30;;
46122;SDS011;31856;-35.404;149.120;2022-10-31T16:39:27;3.30;;;0.40;;
46122;SDS011;31856;-35.404;149.120;2022-10-31T16:41:56;0.57;;;0.30;;
46122;SDS011;31856;-35.404;149.120;2022-10-31T16:44:43;0.30;;;0.30;;
46122;SDS011;31856;-35.404;149.120;2022-10-31T16:47:14;1.17;;;0.30;;
46122;SDS011;31856;-35.404;149.120;2022-10-31T16:49:47;0.98;;;0.30;;
46122;SDS011;31856;-35.404;149.120;2022-10-31T16:52:18;1.20;;;0.32;;
46122;SDS011;31856;-35.404;149.120;2022-10-31T16:54:49;0.30;;;0.30;;
46122;SDS011;31856;-35.404;149.120;2022-10-31T16:57:23;0.30;;;0.30;;
46122;SDS011;31856;-35.404;149.120;2022-10-31T16:59:55;0.52;;;0.30;;
46122;SDS011;31856;-35.404;149.120;2022-10-31T17:02:27;0.30;;;0.30;;
46122;SDS011;31856;-35.404;149.120;2022-10-31T17:04:57;0.40;;;0.40;;
46122;SDS011;31856;-35.404;149.120;2022-10-31T17:07:27;0.60;;;0.40;;
46122;SDS011;31856;-35.404;149.120;2022-10-31T17:09:58;0.30;;;0.30;;
46122;SDS011;31856;-35.404;149.120;2022-10-31T17:12:28;1.40;;;0.30;;
46122;SDS011;31856;-35.404;149.120;2022-10-31T17:14:58;0.45;;;0.30;;
46122;SDS011;31856;-35.404;149.120;2022-10-31T17:17:28;0.63;;;0.40;;
46122;SDS011;31856;-35.404;149.120;2022-10-31T17:19:58;0.30;;;0.30;;
46122;SDS011;31856;-35.404;149.120;2022-10-31T17:22:28;0.75;;;0.30;;
46122;SDS011;31856;-35.404;149.120;2022-10-31T17:24:58;1.38;;;0.30;;
46122;SDS011;31856;-35.404;149.120;2022-10-31T17:27:27;0.30;;;0.30;;
46122;SDS011;31856;-35.404;149.120;2022-10-31T17:29:59;0.30;;;0.30;;
46122;SDS011;31856;-35.404;149.120;2022-10-31T17:32:29;0.30;;;0.30;;
46122;SDS011;31856;-35.404;149.120;2022-10-31T17:34:59;0.73;;;0.40;;
46122;SDS011;31856;-35.404;149.120;2022-10-31T17:37:30;1.58;;;0.30;;
46122;SDS011;31856;-35.404;149.120;2022-10-31T17:40:04;0.30;;;0.30;;
46122;SDS011;31856;-35.404;149.120;2022-10-31T18:10:16;0.30;;;0.30;;
46122;SDS011;31856;-35.404;149.120;2022-10-31T18:12:47;0.25;;;0.25;;
46122;SDS011;31856;-35.404;149.120;2022-10-31T18:15:21;0.30;;;0.30;;
46122;SDS011;31856;-35.404;149.120;2022-10-31T18:20:55;0.20;;;0.20;;
46122;SDS011;31856;-35.404;149.120;2022-10-31T18:23:25;0.30;;;0.30;;
46122;SDS011;31856;-35.404;149.120;2022-10-31T18:25:55;0.20;;;0.20;;
46122;SDS011;31856;-35.404;149.120;2022-10-31T18:28:25;2.22;;;0.40;;
46122;SDS011;31856;-35.404;149.120;2022-10-31T18:30:58;0.30;;;0.30;;
46122;SDS011;31856;-35.404;149.120;2022-10-31T18:33:29;0.30;;;0.30;;
46122;SDS011;31856;-35.404;149.120;2022-10-31T18:36:03;2.85;;;0.30;;
46122;SDS011;31856;-35.404;149.120;2022-10-31T18:38:36;0.30;;;0.30;;
46122;SDS011;31856;-35.404;149.120;2022-10-31T18:41:07;0.47;;;0.30;;
46122;SDS011;31856;-35.404;149.120;2022-10-31T18:43:38;0.30;;;0.30;;
46122;SDS011;31856;-35.404;149.120;2022-10-31T18:46:11;0.30;;;0.30;;
46122;SDS011;31856;-35.404;149.120;2022-10-31T18:48:50;0.30;;;0.30;;
46122;SDS011;31856;-35.404;149.120;2022-10-31T18:51:20;0.30;;;0.30;;
46122;SDS011;31856;-35.404;149.120;2022-10-31T18:53:56;0.30;;;0.30;;
46122;SDS011;31856;-35.404;149.120;2022-10-31T18:56:27;1.20;;;1.10;;
46122;SDS011;31856;-35.404;149.120;2022-10-31T18:59:01;0.20;;;0.20;;
46122;SDS011;31856;-35.404;149.120;2022-10-31T19:01:31;0.20;;;0.20;;
46122;SDS011;31856;-35.404;149.120;2022-10-31T19:04:02;1.15;;;0.20;;
46122;SDS011;31856;-35.404;149.120;2022-10-31T19:06:32;0.20;;;0.20;;
46122;SDS011;31856;-35.404;149.120;2022-10-31T19:09:04;0.20;;;0.20;;
46122;SDS011;31856;-35.404;149.120;2022-10-31T19:11:37;0.63;;;0.63;;
46122;SDS011;31856;-35.404;149.120;2022-10-31T19:14:08;0.30;;;0.30;;
46122;SDS011;31856;-35.404;149.120;2022-10-31T19:16:39;0.32;;;0.32;;
46122;SDS011;31856;-35.404;149.120;2022-10-31T19:19:10;0.40;;;0.30;;
46122;SDS011;31856;-35.404;149.120;2022-10-31T19:21:40;0.20;;;0.20;;
46122;SDS011;31856;-35.404;149.120;2022-10-31T19:24:10;0.70;;;0.30;;
46122;SDS011;31856;-35.404;149.120;2022-10-31T19:26:51;0.30;;;0.30;;
46122;SDS011;31856;-35.404;149.120;2022-10-31T19:29:21;0.43;;;0.30;;
46122;SDS011;31856;-35.404;149.120;2022-10-31T19:31:51;0.20;;;0.20;;
46122;SDS011;31856;-35.404;149.120;2022-10-31T19:34:21;0.28;;;0.28;;
46122;SDS011;31856;-35.404;149.120;2022-10-31T19:36:51;0.45;;;0.30;;
46122;SDS011;31856;-35.404;149.120;2022-10-31T19:39:21;0.30;;;0.30;;
46122;SDS011;31856;-35.404;149.120;2022-10-31T19:41:52;0.30;;;0.30;;
46122;SDS011;31856;-35.404;149.120;2022-10-31T19:44:23;0.28;;;0.28;;
46122;SDS011;31856;-35.404;149.120;2022-10-31T19:46:53;0.20;;;0.20;;
46122;SDS011;31856;-35.404;149.120;2022-10-31T19:49:23;0.20;;;0.20;;
46122;SDS011;31856;-35.404;149.120;2022-10-31T19:51:54;0.28;;;0.28;;
46122;SDS011;31856;-35.404;149.120;2022-10-31T19:54:24;0.30;;;0.30;;
46122;SDS011;31856;-35.404;149.120;2022-10-31T19:57:28;1.00;;;0.30;;
46122;SDS011;31856;-35.404;149.120;2022-10-31T20:00:11;0.30;;;0.30;;
46122;SDS011;31856;-35.404;149.120;2022-10-31T20:02:41;0.22;;;0.22;;
46122;SDS011;31856;-35.404;149.120;2022-10-31T20:05:17;0.20;;;0.20;;
46122;SDS011;31856;-35.404;149.120;2022-10-31T20:07:50;0.30;;;0.30;;
46122;SDS011;31856;-35.404;149.120;2022-10-31T20:10:20;0.68;;;0.30;;
46122;SDS011;31856;-35.404;149.120;2022-10-31T20:12:50;0.30;;;0.30;;
46122;SDS011;31856;-35.404;149.120;2022-10-31T20:15:21;0.30;;;0.30;;
46122;SDS011;31856;-35.404;149.120;2022-10-31T20:17:50;0.30;;;0.30;;
46122;SDS011;31856;-35.404;149.120;2022-10-31T20:20:20;0.75;;;0.20;;
46122;SDS011;31856;-35.404;149.120;2022-10-31T20:22:50;0.63;;;0.30;;
46122;SDS011;31856;-35.404;149.120;2022-10-31T20:25:20;0.30;;;0.30;;
46122;SDS011;31856;-35.404;149.120;2022-10-31T20:27:50;1.13;;;0.55;;
46122;SDS011;31856;-35.404;149.120;2022-10-31T20:30:21;0.30;;;0.30;;
46122;SDS011;31856;-35.404;149.120;2022-10-31T20:32:51;0.20;;;0.20;;
46122;SDS011;31856;-35.404;149.120;2022-10-31T20:35:22;0.30;;;0.30;;
46122;SDS011;31856;-35.404;149.120;2022-10-31T20:37:53;0.20;;;0.20;;
46122;SDS011;31856;-35.404;149.120;2022-10-31T20:40:23;0.30;;;0.30;;
46122;SDS011;31856;-35.404;149.120;2022-10-31T20:42:53;0.30;;;0.30;;
46122;SDS011;31856;-35.404;149.120;2022-10-31T20:45:23;0.20;;;0.20;;
46122;SDS011;31856;-35.404;149.120;2022-10-31T20:47:54;0.30;;;0.30;;
46122;SDS011;31856;-35.404;149.120;2022-10-31T20:50:24;0.30;;;0.30;;
46122;SDS011;31856;-35.404;149.120;2022-10-31T20:52:54;0.30;;;0.30;;
46122;SDS011;31856;-35.404;149.120;2022-10-31T20:55:25;0.30;;;0.30;;
46122;SDS011;31856;-35.404;149.120;2022-10-31T20:57:56;0.30;;;0.30;;
46122;SDS011;31856;-35.404;149.120;2022-10-31T21:00:26;0.30;;;0.30;;
46122;SDS011;31856;-35.404;149.120;2022-10-31T21:02:56;0.30;;;0.30;;
46122;SDS011;31856;-35.404;149.120;2022-10-31T21:05:27;0.30;;;0.30;;
46122;SDS011;31856;-35.404;149.120;2022-10-31T21:07:58;1.83;;;0.50;;
46122;SDS011;31856;-35.404;149.120;2022-10-31T21:10:27;0.30;;;0.30;;
46122;SDS011;31856;-35.404;149.120;2022-10-31T21:12:57;0.30;;;0.30;;
46122;SDS011;31856;-35.404;149.120;2022-10-31T21:15:28;1.48;;;0.40;;
46122;SDS011;31856;-35.404;149.120;2022-10-31T21:17:58;0.30;;;0.30;;
46122;SDS011;31856;-35.404;149.120;2022-10-31T21:20:28;0.43;;;0.30;;
46122;SDS011;31856;-35.404;149.120;2022-10-31T21:35:58;0.20;;;0.20;;
46122;SDS011;31856;-35.404;149.120;2022-10-31T21:38:28;2.15;;;0.30;;
46122;SDS011;31856;-35.404;149.120;2022-10-31T21:41:02;0.20;;;0.20;;
46122;SDS011;31856;-35.404;149.120;2022-10-31T21:43:35;0.30;;;0.30;;
46122;SDS011;31856;-35.404;149.120;2022-10-31T21:46:07;0.40;;;0.30;;
46122;SDS011;31856;-35.404;149.120;2022-10-31T21:48:37;0.20;;;0.20;;
46122;SDS011;31856;-35.404;149.120;2022-10-31T21:51:10;0.30;;;0.30;;
46122;SDS011;31856;-35.404;149.120;2022-10-31T21:53:40;0.30;;;0.30;;
46122;SDS011;31856;-35.404;149.120;2022-10-31T21:56:45;0.20;;;0.20;;
46122;SDS011;31856;-35.404;149.120;2022-10-31T21:59:15;0.30;;;0.30;;
46122;SDS011;31856;-35.404;149.120;2022-10-31T22:01:45;0.30;;;0.30;;